F\v Desperado — FVFQ — position and weather

sailwx.info

Track history (hours):
 
Tides and Currents Weather Stations Pressure Air Temp Water Temp Dewpoint Dewpoint Depression Visibility Wind Speed Wind Dir Waves Ship Positions

F\v Desperado

Last reported at 2014-Oct-31 06:29 UTC. Time now 2014-Oct-31 07:05 UTC.
Position N 46°37' W 002°40'.

Type: Fishing. MMSI: 228312000.

Date/timePositionNaut miles runAvg speedWind from/ knotsBaromVisibWave heightAir tempDewpointWater temp
2014-Oct-31 06:29N 46°37' W 002°40'3 3.1
2014-Oct-31 05:33N 46°39' W 002°41'3 2.5
2014-Oct-31 04:29N 46°42' W 002°41'3 2.9
2014-Oct-31 03:33N 46°44' W 002°38'4 3.0
2014-Oct-31 02:23N 46°46' W 002°35'2 2.4
2014-Oct-31 01:25N 46°48' W 002°33'3 2.9
2014-Oct-31 00:32N 46°51' W 002°34'3 2.8
2014-Oct-30 23:33N 46°52' W 002°38'3 3.0
2014-Oct-30 22:33N 46°55' W 002°40'3 2.8
2014-Oct-30 21:33N 46°56' W 002°43'  
Track history (hours):
 
Tides and Currents Weather Stations Pressure Air Temp Water Temp Dewpoint Dewpoint Depression Visibility Wind Speed Wind Dir Waves Ship Positions

F\v Desperado

Last reported at 2014-Oct-31 06:29 UTC. Time now 2014-Oct-31 07:05 UTC.
Position N 46°37' W 002°40'.

Type: Fishing. MMSI: 228312000.

Date/timePositionNaut miles runAvg speedWind from/ knotsBaromVisibWave heightAir tempDewpointWater temp
2014-Oct-31 06:29N 46°37' W 002°40'3 3.1
2014-Oct-31 05:33N 46°39' W 002°41'3 2.5
2014-Oct-31 04:29N 46°42' W 002°41'3 2.9
2014-Oct-31 03:33N 46°44' W 002°38'4 3.0
2014-Oct-31 02:23N 46°46' W 002°35'2 2.4
2014-Oct-31 01:25N 46°48' W 002°33'3 2.9
2014-Oct-31 00:32N 46°51' W 002°34'3 2.8
2014-Oct-30 23:33N 46°52' W 002°38'3 3.0
2014-Oct-30 22:33N 46°55' W 002°40'3 2.8
2014-Oct-30 21:33N 46°56' W 002°43'  

Dump ship's entire track history